sensor_id;sensor_type;location;lat;lon;timestamp;temperature;humidity
76897;SHT30;65856;52.178;21.176;2023-08-07T00:00:41;18.70;71.73
76897;SHT30;65856;52.178;21.176;2023-08-07T00:03:07;18.70;71.89
76897;SHT30;65856;52.178;21.176;2023-08-07T00:05:33;18.68;71.93
76897;SHT30;65856;52.178;21.176;2023-08-07T00:07:58;18.60;72.01
76897;SHT30;65856;52.178;21.176;2023-08-07T00:10:24;18.55;71.92
76897;SHT30;65856;52.178;21.176;2023-08-07T00:12:51;18.49;72.13
76897;SHT30;65856;52.178;21.176;2023-08-07T00:15:16;18.35;72.57
76897;SHT30;65856;52.178;21.176;2023-08-07T00:17:42;18.21;73.02
76897;SHT30;65856;52.178;21.176;2023-08-07T00:20:07;18.19;73.50
76897;SHT30;65856;52.178;21.176;2023-08-07T00:22:33;18.21;73.77
76897;SHT30;65856;52.178;21.176;2023-08-07T00:24:59;18.25;74.06
76897;SHT30;65856;52.178;21.176;2023-08-07T00:27:25;18.28;74.33
76897;SHT30;65856;52.178;21.176;2023-08-07T00:29:50;18.27;74.37
76897;SHT30;65856;52.178;21.176;2023-08-07T00:32:16;18.28;74.56
76897;SHT30;65856;52.178;21.176;2023-08-07T00:34:42;18.25;74.53
76897;SHT30;65856;52.178;21.176;2023-08-07T00:37:07;18.20;74.66
76897;SHT30;65856;52.178;21.176;2023-08-07T00:39:33;18.09;74.78
76897;SHT30;65856;52.178;21.176;2023-08-07T00:41:58;18.00;75.02
76897;SHT30;65856;52.178;21.176;2023-08-07T00:44:24;17.95;75.21
76897;SHT30;65856;52.178;21.176;2023-08-07T00:46:49;17.97;75.17
76897;SHT30;65856;52.178;21.176;2023-08-07T00:49:15;17.94;75.20
76897;SHT30;65856;52.178;21.176;2023-08-07T00:51:43;17.93;75.19
76897;SHT30;65856;52.178;21.176;2023-08-07T00:54:09;17.92;75.21
76897;SHT30;65856;52.178;21.176;2023-08-07T00:56:43;17.91;75.16
76897;SHT30;65856;52.178;21.176;2023-08-07T00:59:08;17.93;75.09
76897;SHT30;65856;52.178;21.176;2023-08-07T01:01:35;17.98;74.90
76897;SHT30;65856;52.178;21.176;2023-08-07T01:04:01;17.95;74.65
76897;SHT30;65856;52.178;21.176;2023-08-07T01:06:26;17.91;74.58
76897;SHT30;65856;52.178;21.176;2023-08-07T01:08:52;17.89;74.80
76897;SHT30;65856;52.178;21.176;2023-08-07T01:11:28;17.87;74.86
76897;SHT30;65856;52.178;21.176;2023-08-07T01:14:14;17.88;74.79
76897;SHT30;65856;52.178;21.176;2023-08-07T01:17:00;17.87;74.67
76897;SHT30;65856;52.178;21.176;2023-08-07T01:19:33;17.86;74.64
76897;SHT30;65856;52.178;21.176;2023-08-07T01:22:05;17.86;74.48
76897;SHT30;65856;52.178;21.176;2023-08-07T01:24:41;17.85;74.26
76897;SHT30;65856;52.178;21.176;2023-08-07T01:32:40;17.73;74.20
76897;SHT30;65856;52.178;21.176;2023-08-07T01:35:15;17.69;74.33
76897;SHT30;65856;52.178;21.176;2023-08-07T01:37:46;17.61;74.50
76897;SHT30;65856;52.178;21.176;2023-08-07T01:40:13;17.50;74.63
76897;SHT30;65856;52.178;21.176;2023-08-07T01:42:40;17.45;74.81
76897;SHT30;65856;52.178;21.176;2023-08-07T01:45:06;17.46;74.83
76897;SHT30;65856;52.178;21.176;2023-08-07T01:47:32;17.49;74.88
76897;SHT30;65856;52.178;21.176;2023-08-07T01:49:57;17.50;75.17
76897;SHT30;65856;52.178;21.176;2023-08-07T01:52:23;17.50;75.54
76897;SHT30;65856;52.178;21.176;2023-08-07T01:54:48;17.47;75.82
76897;SHT30;65856;52.178;21.176;2023-08-07T01:57:14;17.44;75.91
76897;SHT30;65856;52.178;21.176;2023-08-07T01:59:39;17.40;76.18
76897;SHT30;65856;52.178;21.176;2023-08-07T02:02:05;17.39;76.48
76897;SHT30;65856;52.178;21.176;2023-08-07T02:04:30;17.41;76.44
76897;SHT30;65856;52.178;21.176;2023-08-07T02:06:56;17.41;76.61
76897;SHT30;65856;52.178;21.176;2023-08-07T02:09:22;17.40;76.65
76897;SHT30;65856;52.178;21.176;2023-08-07T02:11:47;17.36;76.91
76897;SHT30;65856;52.178;21.176;2023-08-07T02:14:13;17.30;77.00
76897;SHT30;65856;52.178;21.176;2023-08-07T02:16:38;17.29;77.17
76897;SHT30;65856;52.178;21.176;2023-08-07T02:19:04;17.31;77.18
76897;SHT30;65856;52.178;21.176;2023-08-07T02:21:29;17.30;77.20
76897;SHT30;65856;52.178;21.176;2023-08-07T02:23:57;17.31;77.27
76897;SHT30;65856;52.178;21.176;2023-08-07T02:26:22;17.28;77.37
76897;SHT30;65856;52.178;21.176;2023-08-07T02:28:48;17.33;77.46
76897;SHT30;65856;52.178;21.176;2023-08-07T02:31:13;17.37;77.50
76897;SHT30;65856;52.178;21.176;2023-08-07T02:33:39;17.40;77.33
76897;SHT30;65856;52.178;21.176;2023-08-07T02:36:06;17.35;77.40
76897;SHT30;65856;52.178;21.176;2023-08-07T02:38:32;17.31;77.25
76897;SHT30;65856;52.178;21.176;2023-08-07T02:40:58;17.30;77.24
76897;SHT30;65856;52.178;21.176;2023-08-07T02:43:23;17.31;77.11
76897;SHT30;65856;52.178;21.176;2023-08-07T02:45:49;17.31;77.06
76897;SHT30;65856;52.178;21.176;2023-08-07T02:48:14;17.29;77.22
76897;SHT30;65856;52.178;21.176;2023-08-07T02:50:40;17.33;77.25
76897;SHT30;65856;52.178;21.176;2023-08-07T02:53:05;17.37;77.24
76897;SHT30;65856;52.178;21.176;2023-08-07T02:55:31;17.38;76.95
76897;SHT30;65856;52.178;21.176;2023-08-07T02:57:56;17.32;77.00
76897;SHT30;65856;52.178;21.176;2023-08-07T03:00:22;17.30;76.93
76897;SHT30;65856;52.178;21.176;2023-08-07T03:02:47;17.31;76.98
76897;SHT30;65856;52.178;21.176;2023-08-07T03:05:13;17.24;76.85
76897;SHT30;65856;52.178;21.176;2023-08-07T03:07:38;17.14;77.02
76897;SHT30;65856;52.178;21.176;2023-08-07T03:10:04;17.12;77.16
76897;SHT30;65856;52.178;21.176;2023-08-07T03:12:31;17.08;77.23
76897;SHT30;65856;52.178;21.176;2023-08-07T03:14:57;17.05;77.19
76897;SHT30;65856;52.178;21.176;2023-08-07T03:17:22;17.09;77.47
76897;SHT30;65856;52.178;21.176;2023-08-07T03:19:48;17.12;77.39
76897;SHT30;65856;52.178;21.176;2023-08-07T03:22:14;17.09;77.33
76897;SHT30;65856;52.178;21.176;2023-08-07T03:24:39;17.07;77.38
76897;SHT30;65856;52.178;21.176;2023-08-07T03:27:05;17.07;77.47
76897;SHT30;65856;52.178;21.176;2023-08-07T03:29:31;17.12;77.58
76897;SHT30;65856;52.178;21.176;2023-08-07T03:31:56;17.09;77.64
76897;SHT30;65856;52.178;21.176;2023-08-07T03:34:22;17.01;77.62
76897;SHT30;65856;52.178;21.176;2023-08-07T03:36:47;17.01;77.83
76897;SHT30;65856;52.178;21.176;2023-08-07T03:39:13;17.01;77.88
76897;SHT30;65856;52.178;21.176;2023-08-07T03:41:38;17.02;77.77
76897;SHT30;65856;52.178;21.176;2023-08-07T03:44:04;17.00;77.67
76897;SHT30;65856;52.178;21.176;2023-08-07T03:46:30;16.99;77.70
76897;SHT30;65856;52.178;21.176;2023-08-07T03:48:56;16.98;77.70
76897;SHT30;65856;52.178;21.176;2023-08-07T03:51:21;16.98;77.94
76897;SHT30;65856;52.178;21.176;2023-08-07T03:53:46;17.00;77.81
76897;SHT30;65856;52.178;21.176;2023-08-07T03:56:12;17.02;77.96
76897;SHT30;65856;52.178;21.176;2023-08-07T03:58:38;17.04;77.97
76897;SHT30;65856;52.178;21.176;2023-08-07T04:01:04;17.03;77.85
76897;SHT30;65856;52.178;21.176;2023-08-07T04:03:29;16.99;77.87
76897;SHT30;65856;52.178;21.176;2023-08-07T04:05:55;16.93;77.90
76897;SHT30;65856;52.178;21.176;2023-08-07T04:08:21;16.90;78.00
76897;SHT30;65856;52.178;21.176;2023-08-07T04:11:00;16.93;78.10
76897;SHT30;65856;52.178;21.176;2023-08-07T04:13:29;16.94;77.97
76897;SHT30;65856;52.178;21.176;2023-08-07T04:15:55;16.95;78.13
76897;SHT30;65856;52.178;21.176;2023-08-07T04:18:21;16.97;78.06
76897;SHT30;65856;52.178;21.176;2023-08-07T04:20:53;17.02;78.16
76897;SHT30;65856;52.178;21.176;2023-08-07T04:23:20;17.06;78.21
76897;SHT30;65856;52.178;21.176;2023-08-07T04:25:47;17.09;78.03
76897;SHT30;65856;52.178;21.176;2023-08-07T04:28:13;17.10;77.97
76897;SHT30;65856;52.178;21.176;2023-08-07T04:30:39;17.14;78.01
76897;SHT30;65856;52.178;21.176;2023-08-07T04:33:06;17.17;77.90
76897;SHT30;65856;52.178;21.176;2023-08-07T04:35:32;17.22;77.91
76897;SHT30;65856;52.178;21.176;2023-08-07T04:37:58;17.27;77.81
76897;SHT30;65856;52.178;21.176;2023-08-07T04:40:26;17.31;77.60
76897;SHT30;65856;52.178;21.176;2023-08-07T04:42:51;17.35;77.41
76897;SHT30;65856;52.178;21.176;2023-08-07T04:45:17;17.37;77.27
76897;SHT30;65856;52.178;21.176;2023-08-07T04:47:43;17.40;77.12
76897;SHT30;65856;52.178;21.176;2023-08-07T04:50:08;17.40;76.86
76897;SHT30;65856;52.178;21.176;2023-08-07T04:52:35;17.41;76.62
76897;SHT30;65856;52.178;21.176;2023-08-07T04:55:01;17.36;76.13
76897;SHT30;65856;52.178;21.176;2023-08-07T04:57:26;17.36;76.08
76897;SHT30;65856;52.178;21.176;2023-08-07T04:59:52;17.33;75.81
76897;SHT30;65856;52.178;21.176;2023-08-07T05:02:18;17.32;75.65
76897;SHT30;65856;52.178;21.176;2023-08-07T05:04:44;17.32;75.62
76897;SHT30;65856;52.178;21.176;2023-08-07T05:07:10;17.38;75.86
76897;SHT30;65856;52.178;21.176;2023-08-07T05:09:37;17.43;75.88
76897;SHT30;65856;52.178;21.176;2023-08-07T05:12:03;17.51;75.38
76897;SHT30;65856;52.178;21.176;2023-08-07T05:14:32;17.58;75.09
76897;SHT30;65856;52.178;21.176;2023-08-07T05:16:58;17.64;75.00
76897;SHT30;65856;52.178;21.176;2023-08-07T05:19:27;17.75;74.71
76897;SHT30;65856;52.178;21.176;2023-08-07T05:21:52;17.81;74.08
76897;SHT30;65856;52.178;21.176;2023-08-07T05:24:17;17.88;73.67
76897;SHT30;65856;52.178;21.176;2023-08-07T05:26:43;17.87;73.45
76897;SHT30;65856;52.178;21.176;2023-08-07T05:29:09;17.82;73.39
76897;SHT30;65856;52.178;21.176;2023-08-07T05:31:35;17.78;73.49
76897;SHT30;65856;52.178;21.176;2023-08-07T05:34:01;17.78;73.49
76897;SHT30;65856;52.178;21.176;2023-08-07T05:36:27;17.71;73.46
76897;SHT30;65856;52.178;21.176;2023-08-07T05:38:53;17.69;73.47
76897;SHT30;65856;52.178;21.176;2023-08-07T05:41:18;17.70;73.77
76897;SHT30;65856;52.178;21.176;2023-08-07T05:43:45;17.74;74.01
76897;SHT30;65856;52.178;21.176;2023-08-07T05:46:10;17.77;74.04
76897;SHT30;65856;52.178;21.176;2023-08-07T05:48:36;17.78;74.03
76897;SHT30;65856;52.178;21.176;2023-08-07T05:51:01;17.79;74.05
76897;SHT30;65856;52.178;21.176;2023-08-07T05:53:27;17.79;74.03
76897;SHT30;65856;52.178;21.176;2023-08-07T05:55:52;17.79;74.18
76897;SHT30;65856;52.178;21.176;2023-08-07T05:58:18;17.81;74.17
76897;SHT30;65856;52.178;21.176;2023-08-07T06:00:44;17.84;74.05
76897;SHT30;65856;52.178;21.176;2023-08-07T06:03:09;17.87;73.88
76897;SHT30;65856;52.178;21.176;2023-08-07T06:05:35;17.90;73.90
76897;SHT30;65856;52.178;21.176;2023-08-07T06:08:00;17.91;73.96
76897;SHT30;65856;52.178;21.176;2023-08-07T06:10:26;17.95;73.93
76897;SHT30;65856;52.178;21.176;2023-08-07T06:12:52;17.99;74.05
76897;SHT30;65856;52.178;21.176;2023-08-07T06:15:18;17.97;73.98
76897;SHT30;65856;52.178;21.176;2023-08-07T06:17:45;17.91;74.10
76897;SHT30;65856;52.178;21.176;2023-08-07T06:20:11;17.85;74.06
76897;SHT30;65856;52.178;21.176;2023-08-07T06:22:39;17.79;74.04
76897;SHT30;65856;52.178;21.176;2023-08-07T06:25:05;17.67;74.04
76897;SHT30;65856;52.178;21.176;2023-08-07T06:27:32;17.61;74.18
76897;SHT30;65856;52.178;21.176;2023-08-07T06:29:58;17.60;74.49
76897;SHT30;65856;52.178;21.176;2023-08-07T06:32:24;17.55;74.42
76897;SHT30;65856;52.178;21.176;2023-08-07T06:34:51;17.40;74.77
76897;SHT30;65856;52.178;21.176;2023-08-07T06:37:18;17.39;74.97
76897;SHT30;65856;52.178;21.176;2023-08-07T06:39:44;17.39;75.14
76897;SHT30;65856;52.178;21.176;2023-08-07T06:42:11;17.39;75.37
76897;SHT30;65856;52.178;21.176;2023-08-07T06:44:37;17.39;75.10
76897;SHT30;65856;52.178;21.176;2023-08-07T06:47:03;17.38;74.84
76897;SHT30;65856;52.178;21.176;2023-08-07T06:49:29;17.42;74.96
76897;SHT30;65856;52.178;21.176;2023-08-07T06:51:56;17.49;74.71
76897;SHT30;65856;52.178;21.176;2023-08-07T06:54:23;17.48;74.29
76897;SHT30;65856;52.178;21.176;2023-08-07T06:56:48;17.43;74.10
76897;SHT30;65856;52.178;21.176;2023-08-07T06:59:14;17.40;73.63
76897;SHT30;65856;52.178;21.176;2023-08-07T07:01:39;17.42;74.15
76897;SHT30;65856;52.178;21.176;2023-08-07T07:04:05;17.47;74.64
76897;SHT30;65856;52.178;21.176;2023-08-07T07:06:30;17.49;74.44
76897;SHT30;65856;52.178;21.176;2023-08-07T07:08:56;17.42;73.78
76897;SHT30;65856;52.178;21.176;2023-08-07T07:11:22;17.43;73.57
76897;SHT30;65856;52.178;21.176;2023-08-07T07:13:49;17.41;73.17
76897;SHT30;65856;52.178;21.176;2023-08-07T07:16:17;17.42;72.79
76897;SHT30;65856;52.178;21.176;2023-08-07T07:18:49;17.48;72.70
76897;SHT30;65856;52.178;21.176;2023-08-07T07:21:16;17.60;72.90
76897;SHT30;65856;52.178;21.176;2023-08-07T07:23:42;17.76;72.67
76897;SHT30;65856;52.178;21.176;2023-08-07T07:26:08;17.90;71.96
76897;SHT30;65856;52.178;21.176;2023-08-07T07:28:33;17.94;71.42
76897;SHT30;65856;52.178;21.176;2023-08-07T07:30:59;18.01;70.98
76897;SHT30;65856;52.178;21.176;2023-08-07T07:33:24;18.11;70.57
76897;SHT30;65856;52.178;21.176;2023-08-07T07:35:50;18.15;70.38
76897;SHT30;65856;52.178;21.176;2023-08-07T07:38:15;18.10;69.81
76897;SHT30;65856;52.178;21.176;2023-08-07T07:40:41;18.07;70.16
76897;SHT30;65856;52.178;21.176;2023-08-07T07:43:07;18.06;70.18
76897;SHT30;65856;52.178;21.176;2023-08-07T07:45:33;18.10;69.94
76897;SHT30;65856;52.178;21.176;2023-08-07T07:48:00;18.17;70.32
76897;SHT30;65856;52.178;21.176;2023-08-07T07:50:28;18.24;69.99
76897;SHT30;65856;52.178;21.176;2023-08-07T07:52:53;18.24;69.50
76897;SHT30;65856;52.178;21.176;2023-08-07T07:55:19;18.22;69.04
76897;SHT30;65856;52.178;21.176;2023-08-07T07:57:45;18.16;69.01
76897;SHT30;65856;52.178;21.176;2023-08-07T08:00:11;18.11;68.81
76897;SHT30;65856;52.178;21.176;2023-08-07T08:02:38;18.07;68.77
76897;SHT30;65856;52.178;21.176;2023-08-07T08:05:06;17.96;68.95
76897;SHT30;65856;52.178;21.176;2023-08-07T08:07:33;17.89;68.90
76897;SHT30;65856;52.178;21.176;2023-08-07T08:09:59;17.85;68.61
76897;SHT30;65856;52.178;21.176;2023-08-07T08:12:26;17.82;68.64
76897;SHT30;65856;52.178;21.176;2023-08-07T08:14:51;17.83;68.58
76897;SHT30;65856;52.178;21.176;2023-08-07T08:17:17;17.88;68.52
76897;SHT30;65856;52.178;21.176;2023-08-07T08:19:42;17.93;68.48
76897;SHT30;65856;52.178;21.176;2023-08-07T08:22:08;17.93;68.27
76897;SHT30;65856;52.178;21.176;2023-08-07T08:24:34;17.99;68.63
76897;SHT30;65856;52.178;21.176;2023-08-07T08:27:00;18.08;68.48
76897;SHT30;65856;52.178;21.176;2023-08-07T08:29:26;18.14;68.12
76897;SHT30;65856;52.178;21.176;2023-08-07T08:31:53;18.26;67.87
76897;SHT30;65856;52.178;21.176;2023-08-07T08:34:20;18.38;67.64
76897;SHT30;65856;52.178;21.176;2023-08-07T08:36:46;18.43;67.60
76897;SHT30;65856;52.178;21.176;2023-08-07T08:39:13;18.51;67.26
76897;SHT30;65856;52.178;21.176;2023-08-07T08:41:39;18.53;67.17
76897;SHT30;65856;52.178;21.176;2023-08-07T08:44:14;18.59;66.95
76897;SHT30;65856;52.178;21.176;2023-08-07T08:46:44;18.58;66.72
76897;SHT30;65856;52.178;21.176;2023-08-07T08:49:18;18.55;66.97
76897;SHT30;65856;52.178;21.176;2023-08-07T08:51:53;18.52;66.75
76897;SHT30;65856;52.178;21.176;2023-08-07T08:54:19;18.47;66.71
76897;SHT30;65856;52.178;21.176;2023-08-07T08:56:45;18.44;66.92
76897;SHT30;65856;52.178;21.176;2023-08-07T08:59:11;18.42;66.74
76897;SHT30;65856;52.178;21.176;2023-08-07T09:01:37;18.39;67.18
76897;SHT30;65856;52.178;21.176;2023-08-07T09:04:03;18.41;67.30
76897;SHT30;65856;52.178;21.176;2023-08-07T09:06:30;18.52;67.35
76897;SHT30;65856;52.178;21.176;2023-08-07T09:08:57;18.64;67.07
76897;SHT30;65856;52.178;21.176;2023-08-07T09:11:25;18.76;66.89
76897;SHT30;65856;52.178;21.176;2023-08-07T09:13:52;18.91;66.18
76897;SHT30;65856;52.178;21.176;2023-08-07T09:16:20;19.08;65.77
76897;SHT30;65856;52.178;21.176;2023-08-07T09:18:50;19.25;65.68
76897;SHT30;65856;52.178;21.176;2023-08-07T09:21:16;19.37;65.72
76897;SHT30;65856;52.178;21.176;2023-08-07T09:23:42;19.44;64.98
76897;SHT30;65856;52.178;21.176;2023-08-07T09:26:08;19.59;64.94
76897;SHT30;65856;52.178;21.176;2023-08-07T09:28:35;19.79;64.73
76897;SHT30;65856;52.178;21.176;2023-08-07T09:31:01;19.93;64.46
76897;SHT30;65856;52.178;21.176;2023-08-07T09:33:27;20.19;63.51
76897;SHT30;65856;52.178;21.176;2023-08-07T09:35:58;20.57;63.03
76897;SHT30;65856;52.178;21.176;2023-08-07T09:38:30;20.92;62.58
76897;SHT30;65856;52.178;21.176;2023-08-07T09:41:00;21.21;60.64
76897;SHT30;65856;52.178;21.176;2023-08-07T09:43:28;21.51;59.75
76897;SHT30;65856;52.178;21.176;2023-08-07T09:46:06;21.83;58.46
76897;SHT30;65856;52.178;21.176;2023-08-07T09:48:39;21.94;57.03
76897;SHT30;65856;52.178;21.176;2023-08-07T09:51:07;21.83;56.13
76897;SHT30;65856;52.178;21.176;2023-08-07T09:53:34;21.72;56.65
76897;SHT30;65856;52.178;21.176;2023-08-07T09:55:59;21.68;57.60
76897;SHT30;65856;52.178;21.176;2023-08-07T09:58:26;21.63;56.72
76897;SHT30;65856;52.178;21.176;2023-08-07T10:00:54;21.49;56.42
76897;SHT30;65856;52.178;21.176;2023-08-07T10:03:24;21.39;56.98
76897;SHT30;65856;52.178;21.176;2023-08-07T10:05:50;21.33;56.90
76897;SHT30;65856;52.178;21.176;2023-08-07T10:08:17;21.31;57.13
76897;SHT30;65856;52.178;21.176;2023-08-07T10:10:43;21.31;56.01
76897;SHT30;65856;52.178;21.176;2023-08-07T10:13:12;21.35;55.71
76897;SHT30;65856;52.178;21.176;2023-08-07T10:15:39;21.48;55.62
76897;SHT30;65856;52.178;21.176;2023-08-07T10:18:07;21.62;55.40
76897;SHT30;65856;52.178;21.176;2023-08-07T10:20:34;21.74;55.56
76897;SHT30;65856;52.178;21.176;2023-08-07T10:23:08;21.78;54.93
76897;SHT30;65856;52.178;21.176;2023-08-07T10:25:40;21.81;55.00
76897;SHT30;65856;52.178;21.176;2023-08-07T10:28:12;21.95;55.30
76897;SHT30;65856;52.178;21.176;2023-08-07T10:30:42;22.11;55.40
76897;SHT30;65856;52.178;21.176;2023-08-07T10:33:12;22.38;55.74
76897;SHT30;65856;52.178;21.176;2023-08-07T10:35:44;22.65;54.86
76897;SHT30;65856;52.178;21.176;2023-08-07T10:38:13;22.87;54.18
76897;SHT30;65856;52.178;21.176;2023-08-07T10:43:39;23.17;54.07
76897;SHT30;65856;52.178;21.176;2023-08-07T10:46:11;23.27;53.50
76897;SHT30;65856;52.178;21.176;2023-08-07T10:48:45;23.34;52.85
76897;SHT30;65856;52.178;21.176;2023-08-07T10:51:17;23.35;52.41
76897;SHT30;65856;52.178;21.176;2023-08-07T10:53:44;23.29;52.89
76897;SHT30;65856;52.178;21.176;2023-08-07T10:56:17;23.14;52.48
76897;SHT30;65856;52.178;21.176;2023-08-07T10:58:55;22.93;52.50
76897;SHT30;65856;52.178;21.176;2023-08-07T11:03:56;22.52;52.62
76897;SHT30;65856;52.178;21.176;2023-08-07T11:06:28;22.36;52.79
76897;SHT30;65856;52.178;21.176;2023-08-07T11:08:56;22.24;52.94
76897;SHT30;65856;52.178;21.176;2023-08-07T11:11:23;22.14;52.65
76897;SHT30;65856;52.178;21.176;2023-08-07T11:13:49;22.08;52.96
76897;SHT30;65856;52.178;21.176;2023-08-07T11:16:16;22.22;53.49
76897;SHT30;65856;52.178;21.176;2023-08-07T11:18:45;22.38;53.19
76897;SHT30;65856;52.178;21.176;2023-08-07T11:21:13;22.42;52.48
76897;SHT30;65856;52.178;21.176;2023-08-07T11:23:39;22.43;52.33
76897;SHT30;65856;52.178;21.176;2023-08-07T11:26:06;22.42;52.70
76897;SHT30;65856;52.178;21.176;2023-08-07T11:28:35;22.48;52.24
76897;SHT30;65856;52.178;21.176;2023-08-07T11:31:01;22.51;51.89
76897;SHT30;65856;52.178;21.176;2023-08-07T11:33:27;22.49;52.20
76897;SHT30;65856;52.178;21.176;2023-08-07T11:35:54;22.56;52.32
76897;SHT30;65856;52.178;21.176;2023-08-07T11:41:10;22.73;51.35
76897;SHT30;65856;52.178;21.176;2023-08-07T11:43:39;22.74;51.03
76897;SHT30;65856;52.178;21.176;2023-08-07T11:46:07;22.77;50.88
76897;SHT30;65856;52.178;21.176;2023-08-07T11:48:36;22.79;50.90
76897;SHT30;65856;52.178;21.176;2023-08-07T11:51:04;22.82;50.91
76897;SHT30;65856;52.178;21.176;2023-08-07T11:53:32;22.81;50.26
76897;SHT30;65856;52.178;21.176;2023-08-07T11:56:03;22.85;50.34
76897;SHT30;65856;52.178;21.176;2023-08-07T11:58:35;22.84;50.16
76897;SHT30;65856;52.178;21.176;2023-08-07T12:01:10;22.86;50.91
76897;SHT30;65856;52.178;21.176;2023-08-07T12:03:56;22.91;50.97
76897;SHT30;65856;52.178;21.176;2023-08-07T12:06:34;22.95;49.96
76897;SHT30;65856;52.178;21.176;2023-08-07T12:09:02;22.90;49.89
76897;SHT30;65856;52.178;21.176;2023-08-07T12:11:28;22.86;50.04
76897;SHT30;65856;52.178;21.176;2023-08-07T12:13:55;22.84;49.83
76897;SHT30;65856;52.178;21.176;2023-08-07T12:16:21;22.82;50.06
76897;SHT30;65856;52.178;21.176;2023-08-07T12:18:48;22.81;49.69
76897;SHT30;65856;52.178;21.176;2023-08-07T12:21:19;22.78;49.69
76897;SHT30;65856;52.178;21.176;2023-08-07T12:23:49;22.67;49.69
76897;SHT30;65856;52.178;21.176;2023-08-07T12:26:16;22.57;49.96
76897;SHT30;65856;52.178;21.176;2023-08-07T12:28:42;22.54;50.55
76897;SHT30;65856;52.178;21.176;2023-08-07T12:31:08;22.49;50.73
76897;SHT30;65856;52.178;21.176;2023-08-07T12:33:34;22.40;50.19
76897;SHT30;65856;52.178;21.176;2023-08-07T12:36:00;22.35;50.71
76897;SHT30;65856;52.178;21.176;2023-08-07T12:38:27;22.32;51.07
76897;SHT30;65856;52.178;21.176;2023-08-07T12:40:54;22.29;51.39
76897;SHT30;65856;52.178;21.176;2023-08-07T12:43:19;22.21;51.41
76897;SHT30;65856;52.178;21.176;2023-08-07T12:45:45;22.13;51.40
76897;SHT30;65856;52.178;21.176;2023-08-07T12:48:11;22.05;50.97
76897;SHT30;65856;52.178;21.176;2023-08-07T12:50:36;21.94;50.89
76897;SHT30;65856;52.178;21.176;2023-08-07T12:53:03;21.89;51.08
76897;SHT30;65856;52.178;21.176;2023-08-07T12:55:29;21.88;51.79
76897;SHT30;65856;52.178;21.176;2023-08-07T12:57:54;21.90;51.89
76897;SHT30;65856;52.178;21.176;2023-08-07T13:00:21;21.96;52.15
76897;SHT30;65856;52.178;21.176;2023-08-07T13:02:49;21.99;51.97
76897;SHT30;65856;52.178;21.176;2023-08-07T13:05:16;22.05;52.12
76897;SHT30;65856;52.178;21.176;2023-08-07T13:07:44;22.17;52.56
76897;SHT30;65856;52.178;21.176;2023-08-07T13:10:12;22.27;51.74
76897;SHT30;65856;52.178;21.176;2023-08-07T13:12:41;22.34;50.93
76897;SHT30;65856;52.178;21.176;2023-08-07T13:15:12;22.44;51.10
76897;SHT30;65856;52.178;21.176;2023-08-07T13:17:40;22.53;50.73
76897;SHT30;65856;52.178;21.176;2023-08-07T13:20:08;22.65;51.17
76897;SHT30;65856;52.178;21.176;2023-08-07T13:22:38;22.71;50.30
76897;SHT30;65856;52.178;21.176;2023-08-07T13:25:06;22.73;49.78
76897;SHT30;65856;52.178;21.176;2023-08-07T13:27:34;22.73;49.89
76897;SHT30;65856;52.178;21.176;2023-08-07T13:30:01;22.73;50.01
76897;SHT30;65856;52.178;21.176;2023-08-07T13:32:28;22.71;49.58
76897;SHT30;65856;52.178;21.176;2023-08-07T13:34:54;22.67;49.63
76897;SHT30;65856;52.178;21.176;2023-08-07T13:37:20;22.57;49.16
76897;SHT30;65856;52.178;21.176;2023-08-07T13:39:46;22.50;49.29
76897;SHT30;65856;52.178;21.176;2023-08-07T13:42:14;22.44;48.90
76897;SHT30;65856;52.178;21.176;2023-08-07T13:44:40;22.37;48.46
76897;SHT30;65856;52.178;21.176;2023-08-07T13:47:06;22.26;48.61
76897;SHT30;65856;52.178;21.176;2023-08-07T13:49:32;22.20;48.28
76897;SHT30;65856;52.178;21.176;2023-08-07T13:51:59;22.13;48.14
76897;SHT30;65856;52.178;21.176;2023-08-07T13:54:24;22.10;48.68
76897;SHT30;65856;52.178;21.176;2023-08-07T13:56:50;22.08;48.65
76897;SHT30;65856;52.178;21.176;2023-08-07T13:59:16;22.05;48.28
76897;SHT30;65856;52.178;21.176;2023-08-07T14:01:41;22.00;48.55
76897;SHT30;65856;52.178;21.176;2023-08-07T14:04:07;21.97;48.79
76897;SHT30;65856;52.178;21.176;2023-08-07T14:06:33;21.90;48.83
76897;SHT30;65856;52.178;21.176;2023-08-07T14:08:58;21.86;49.12
76897;SHT30;65856;52.178;21.176;2023-08-07T14:11:24;21.78;49.37
76897;SHT30;65856;52.178;21.176;2023-08-07T14:13:55;21.73;49.74
76897;SHT30;65856;52.178;21.176;2023-08-07T14:16:24;21.67;49.91
76897;SHT30;65856;52.178;21.176;2023-08-07T14:18:50;21.67;49.53
76897;SHT30;65856;52.178;21.176;2023-08-07T14:21:16;21.65;49.74
76897;SHT30;65856;52.178;21.176;2023-08-07T14:23:42;21.63;49.71
76897;SHT30;65856;52.178;21.176;2023-08-07T14:26:10;21.64;50.10
76897;SHT30;65856;52.178;21.176;2023-08-07T14:28:37;21.67;50.32
76897;SHT30;65856;52.178;21.176;2023-08-07T14:31:05;21.74;50.19
76897;SHT30;65856;52.178;21.176;2023-08-07T14:33:33;21.75;50.13
76897;SHT30;65856;52.178;21.176;2023-08-07T14:35:58;21.76;50.30
76897;SHT30;65856;52.178;21.176;2023-08-07T14:38:25;21.78;50.53
76897;SHT30;65856;52.178;21.176;2023-08-07T14:40:51;21.81;50.68
76897;SHT30;65856;52.178;21.176;2023-08-07T14:43:16;21.79;50.73
76897;SHT30;65856;52.178;21.176;2023-08-07T14:45:42;21.85;50.82
76897;SHT30;65856;52.178;21.176;2023-08-07T14:48:07;21.87;50.90
76897;SHT30;65856;52.178;21.176;2023-08-07T14:50:33;21.87;50.86
76897;SHT30;65856;52.178;21.176;2023-08-07T14:52:58;21.79;50.57
76897;SHT30;65856;52.178;21.176;2023-08-07T14:55:24;21.66;51.46
76897;SHT30;65856;52.178;21.176;2023-08-07T14:57:49;21.55;52.30
76897;SHT30;65856;52.178;21.176;2023-08-07T15:00:15;21.43;52.76
76897;SHT30;65856;52.178;21.176;2023-08-07T15:02:42;21.33;53.08
76897;SHT30;65856;52.178;21.176;2023-08-07T15:05:07;21.32;53.41
76897;SHT30;65856;52.178;21.176;2023-08-07T15:07:33;21.38;53.80
76897;SHT30;65856;52.178;21.176;2023-08-07T15:09:59;21.48;53.84
76897;SHT30;65856;52.178;21.176;2023-08-07T15:12:24;21.52;53.55
76897;SHT30;65856;52.178;21.176;2023-08-07T15:14:50;21.56;53.97
76897;SHT30;65856;52.178;21.176;2023-08-07T15:17:16;21.60;53.63
76897;SHT30;65856;52.178;21.176;2023-08-07T15:19:42;21.59;53.67
76897;SHT30;65856;52.178;21.176;2023-08-07T15:22:07;21.59;53.07
76897;SHT30;65856;52.178;21.176;2023-08-07T15:24:32;21.54;52.13
76897;SHT30;65856;52.178;21.176;2023-08-07T15:26:58;21.47;51.66